createdAt,value
2017-07-20T00:00:17.554Z,89.10
2017-07-20T00:02:48.749Z,88.72
2017-07-20T00:05:18.502Z,88.79
2017-07-20T00:07:48.436Z,88.63
2017-07-20T00:10:18.239Z,88.99
2017-07-20T00:12:48.060Z,88.97
2017-07-20T00:15:18.600Z,88.39
2017-07-20T00:17:48.404Z,88.38
2017-07-20T00:20:18.219Z,88.83
2017-07-20T00:22:48.035Z,88.82
2017-07-20T00:25:17.856Z,88.60
2017-07-20T00:27:47.644Z,89.30
2017-07-20T00:30:17.597Z,88.40
2017-07-20T00:32:47.444Z,88.67
2017-07-20T00:35:17.282Z,87.57
2017-07-20T00:37:47.863Z,87.38
2017-07-20T00:40:17.651Z,87.05
2017-07-20T00:42:48.889Z,87.33
2017-07-20T00:45:19.473Z,87.10
2017-07-20T00:47:49.895Z,85.55
2017-07-20T00:50:19.684Z,85.20
2017-07-20T00:52:49.958Z,85.58
2017-07-20T00:55:19.840Z,85.56
2017-07-20T00:57:49.780Z,87.01
2017-07-20T01:00:19.675Z,88.12
2017-07-20T01:02:49.505Z,86.61
2017-07-20T01:05:21.908Z,87.29
2017-07-20T01:07:51.897Z,88.17
2017-07-20T01:10:21.702Z,88.99
2017-07-20T01:12:52.379Z,88.26
2017-07-20T01:15:22.369Z,87.55
2017-07-20T01:17:52.180Z,88.77
2017-07-20T01:20:21.701Z,87.69
2017-07-20T01:22:52.126Z,87.77
2017-07-20T01:25:22.262Z,87.83
2017-07-20T01:27:51.995Z,88.23
2017-07-20T01:30:22.802Z,86.99
2017-07-20T01:32:52.300Z,86.44
2017-07-20T01:35:22.779Z,86.55
2017-07-20T01:37:53.273Z,86.05
2017-07-20T01:40:24.113Z,85.10
2017-07-20T01:42:53.916Z,85.07
2017-07-20T01:45:23.327Z,84.90
2017-07-20T01:47:52.945Z,84.88
2017-07-20T01:50:22.717Z,85.45
2017-07-20T01:52:52.523Z,86.55
2017-07-20T01:55:22.381Z,86.03
2017-07-20T01:57:52.221Z,86.09
2017-07-20T02:00:21.326Z,87.73
2017-07-20T02:02:51.016Z,86.24
2017-07-20T02:05:21.168Z,86.87
2017-07-20T02:07:51.268Z,87.28
2017-07-20T02:10:22.824Z,87.24
2017-07-20T02:12:52.620Z,86.49
2017-07-20T02:15:23.605Z,86.63
2017-07-20T02:17:53.494Z,86.71
2017-07-20T02:20:23.243Z,87.47
2017-07-20T02:22:53.120Z,88.14
2017-07-20T02:25:22.936Z,88.20
2017-07-20T02:27:52.866Z,87.79
2017-07-20T02:30:22.677Z,87.99
2017-07-20T02:32:53.228Z,88.51
2017-07-20T02:35:23.133Z,88.88
2017-07-20T02:37:52.935Z,88.42
2017-07-20T02:40:22.632Z,88.16
2017-07-20T02:42:52.508Z,88.10
2017-07-20T02:45:22.116Z,88.53
2017-07-20T02:47:51.929Z,88.49
2017-07-20T02:50:21.689Z,88.60
2017-07-20T02:52:51.424Z,88.51
2017-07-20T02:55:21.141Z,88.14
2017-07-20T02:57:50.831Z,88.78
2017-07-20T03:00:20.810Z,89.00
2017-07-20T03:02:50.579Z,88.20
2017-07-20T03:05:20.299Z,88.64
2017-07-20T03:07:50.047Z,87.60
2017-07-20T03:10:21.155Z,87.40
2017-07-20T03:12:50.862Z,86.96
2017-07-20T03:15:20.586Z,87.54
2017-07-20T03:17:50.398Z,87.64
2017-07-20T03:20:20.277Z,87.10
2017-07-20T03:22:50.039Z,86.46
2017-07-20T03:25:19.879Z,86.07
2017-07-20T03:27:49.709Z,85.79
2017-07-20T03:30:20.254Z,86.13
2017-07-20T03:32:50.014Z,85.39
2017-07-20T03:35:19.726Z,85.29
2017-07-20T03:37:49.466Z,85.00
2017-07-20T03:40:19.122Z,86.16
2017-07-20T03:42:48.909Z,85.44
2017-07-20T03:45:18.698Z,84.68
2017-07-20T03:47:48.411Z,84.40
2017-07-20T03:50:18.247Z,84.28
2017-07-20T03:52:48.034Z,84.56
2017-07-20T03:55:17.894Z,84.82
2017-07-20T03:57:47.656Z,84.70
2017-07-20T04:00:17.368Z,84.72
2017-07-20T04:02:47.115Z,84.33
2017-07-20T04:05:16.897Z,84.55
2017-07-20T04:07:46.619Z,84.20
2017-07-20T04:10:16.336Z,85.39
2017-07-20T04:12:46.100Z,84.95
2017-07-20T04:15:15.862Z,84.29
2017-07-20T04:17:46.423Z,85.02
2017-07-20T04:20:16.108Z,85.41
2017-07-20T04:22:45.822Z,85.53
2017-07-20T04:25:16.340Z,85.42
2017-07-20T04:27:46.420Z,84.77
2017-07-20T04:30:16.231Z,84.54
2017-07-20T04:32:46.012Z,84.72
2017-07-20T04:35:15.722Z,84.00
2017-07-20T04:37:45.458Z,84.12
2017-07-20T04:40:15.247Z,83.73
2017-07-20T04:42:44.984Z,83.48
2017-07-20T04:45:14.786Z,83.54
2017-07-20T04:47:44.472Z,82.84
2017-07-20T04:50:14.239Z,83.34
2017-07-20T04:52:44.921Z,84.38
2017-07-20T04:55:14.681Z,83.61
2017-07-20T04:57:44.440Z,83.69
2017-07-20T05:00:14.171Z,83.77
2017-07-20T05:02:43.942Z,82.99
2017-07-20T05:05:13.721Z,83.56
2017-07-20T05:07:43.487Z,84.09
2017-07-20T05:10:13.252Z,84.24
2017-07-20T05:12:42.957Z,84.07
2017-07-20T05:15:12.678Z,83.59
2017-07-20T05:17:42.491Z,84.05
2017-07-20T05:20:12.211Z,84.28
2017-07-20T05:22:42.018Z,84.00
2017-07-20T05:25:11.734Z,83.98
2017-07-20T05:27:41.563Z,84.07
2017-07-20T05:30:11.366Z,84.29
2017-07-20T05:32:41.126Z,83.91
2017-07-20T05:35:10.747Z,84.11
2017-07-20T05:37:40.302Z,84.06
2017-07-20T05:40:09.858Z,84.29
2017-07-20T05:42:39.436Z,83.99
2017-07-20T05:45:09.084Z,83.34
2017-07-20T05:47:38.842Z,83.39
2017-07-20T05:50:09.185Z,83.25
2017-07-20T05:52:38.994Z,83.22
2017-07-20T05:55:08.742Z,83.63
2017-07-20T05:57:39.410Z,83.92
2017-07-20T06:00:09.127Z,82.86
2017-07-20T06:02:38.882Z,82.50
2017-07-20T06:05:08.711Z,82.25
2017-07-20T06:07:39.256Z,81.93
2017-07-20T06:10:09.744Z,82.27
2017-07-20T06:12:40.387Z,81.96
2017-07-20T06:15:10.104Z,81.75
2017-07-20T06:17:39.819Z,81.28
2017-07-20T06:20:09.650Z,80.63
2017-07-20T06:22:39.446Z,80.78
2017-07-20T06:25:09.209Z,80.66
2017-07-20T06:27:38.973Z,80.86
2017-07-20T06:30:08.697Z,80.08
2017-07-20T06:32:38.413Z,81.16
2017-07-20T06:35:08.147Z,80.31
2017-07-20T06:37:38.526Z,80.36
2017-07-20T06:40:08.242Z,79.59
2017-07-20T06:42:37.958Z,79.40
2017-07-20T06:45:07.721Z,78.95
2017-07-20T06:47:38.240Z,78.24
2017-07-20T06:50:08.069Z,78.37
2017-07-20T06:52:37.876Z,78.16
2017-07-20T06:55:07.675Z,78.66
2017-07-20T06:57:37.488Z,78.46
2017-07-20T07:00:07.170Z,77.69
2017-07-20T07:02:36.942Z,77.83
2017-07-20T07:05:06.769Z,76.89
2017-07-20T07:07:36.554Z,75.84
2017-07-20T07:10:06.383Z,74.97
2017-07-20T07:12:36.174Z,75.25
2017-07-20T07:15:05.951Z,74.08
2017-07-20T07:17:35.698Z,73.67
2017-07-20T07:20:05.434Z,72.86
2017-07-20T07:22:35.181Z,72.07
2017-07-20T07:25:04.935Z,72.18
2017-07-20T07:27:34.736Z,71.28
2017-07-20T07:30:04.478Z,69.92
2017-07-20T07:32:34.267Z,70.50
2017-07-20T07:35:04.038Z,71.63
2017-07-20T07:37:33.825Z,71.14
2017-07-20T07:40:03.570Z,71.70
2017-07-20T07:42:33.350Z,70.62
2017-07-20T07:45:03.101Z,69.54
2017-07-20T07:47:32.854Z,67.98
2017-07-20T07:50:03.214Z,67.57
2017-07-20T07:52:32.963Z,66.85
2017-07-20T07:55:03.247Z,65.81
2017-07-20T07:57:33.013Z,66.74
2017-07-20T08:00:02.782Z,67.56
2017-07-20T08:02:32.486Z,67.70
2017-07-20T08:05:02.234Z,68.38
2017-07-20T08:07:32.018Z,67.73
2017-07-20T08:10:01.808Z,66.88
2017-07-20T08:12:32.270Z,66.64
2017-07-20T08:15:02.017Z,68.46
2017-07-20T08:17:31.798Z,69.77
2017-07-20T08:20:01.507Z,70.74
2017-07-20T08:22:39.746Z,70.85
2017-07-20T08:25:10.051Z,70.42
2017-07-20T08:27:39.800Z,68.70
2017-07-20T08:30:09.591Z,68.87
2017-07-20T08:32:39.366Z,69.94
2017-07-20T08:35:09.124Z,71.14
2017-07-20T08:37:38.926Z,71.90
2017-07-20T08:40:08.667Z,72.33
2017-07-20T08:42:38.434Z,71.91
2017-07-20T08:45:08.182Z,71.84
2017-07-20T08:47:38.006Z,71.37
2017-07-20T08:50:07.696Z,72.01
2017-07-20T08:52:37.451Z,72.77
2017-07-20T08:55:07.223Z,71.53
2017-07-20T08:57:36.915Z,70.90
2017-07-20T09:00:06.663Z,70.17
2017-07-20T09:02:36.951Z,69.22
2017-07-20T09:05:07.415Z,69.19
2017-07-20T09:07:37.100Z,70.05
2017-07-20T09:10:06.813Z,67.99
2017-07-20T09:12:36.564Z,67.62
2017-07-20T09:15:06.243Z,67.36
2017-07-20T09:17:36.189Z,66.88
2017-07-20T09:20:05.921Z,65.34
2017-07-20T09:22:35.709Z,65.64
2017-07-20T09:25:05.469Z,65.01
2017-07-20T09:27:35.248Z,63.47
2017-07-20T09:30:05.039Z,62.38
2017-07-20T09:32:34.750Z,61.38
2017-07-20T09:35:04.511Z,61.12
2017-07-20T09:37:34.309Z,59.94
2017-07-20T09:40:03.994Z,60.44
2017-07-20T09:42:33.796Z,59.34
2017-07-20T09:45:14.753Z,60.11
2017-07-20T09:47:44.559Z,60.19
2017-07-20T09:50:14.333Z,62.08
2017-07-20T09:52:44.087Z,62.59
2017-07-20T09:55:13.882Z,61.44
2017-07-20T09:57:43.783Z,60.62
2017-07-20T10:00:13.541Z,60.59
2017-07-20T10:02:43.417Z,60.45
2017-07-20T10:05:13.107Z,59.52
2017-07-20T10:07:42.938Z,58.47
2017-07-20T10:10:12.665Z,58.57
2017-07-20T10:12:42.505Z,58.56
2017-07-20T10:15:12.267Z,57.99
2017-07-20T10:17:41.988Z,58.37
2017-07-20T10:20:11.737Z,58.06
2017-07-20T10:22:41.637Z,59.13
2017-07-20T10:25:11.402Z,59.15
2017-07-20T10:27:41.162Z,60.16
2017-07-20T10:30:10.852Z,59.72
2017-07-20T10:32:41.312Z,59.41
2017-07-20T10:35:11.010Z,59.09
2017-07-20T10:37:40.748Z,59.43
2017-07-20T10:40:10.448Z,59.66
2017-07-20T10:42:40.162Z,59.11
2017-07-20T10:45:09.893Z,60.09
2017-07-20T10:47:42.864Z,60.24
2017-07-20T10:50:14.532Z,60.73
2017-07-20T10:52:44.245Z,60.97
2017-07-20T10:55:14.037Z,60.32
2017-07-20T10:57:44.687Z,60.30
2017-07-20T11:00:14.416Z,59.93
2017-07-20T11:02:44.242Z,60.53
2017-07-20T11:05:14.040Z,58.48
2017-07-20T11:07:43.830Z,58.51
2017-07-20T11:10:13.587Z,58.22
2017-07-20T11:12:43.451Z,58.47
2017-07-20T11:15:13.267Z,59.42
2017-07-20T11:17:43.086Z,57.68
2017-07-20T11:20:12.822Z,56.12
2017-07-20T11:22:42.649Z,56.81
2017-07-20T11:25:12.339Z,57.59
2017-07-20T11:27:42.115Z,57.97
2017-07-20T11:30:11.987Z,57.92
2017-07-20T11:32:41.696Z,57.86
2017-07-20T11:35:11.441Z,56.85
2017-07-20T11:37:41.114Z,56.81
2017-07-20T11:40:10.897Z,57.24
2017-07-20T11:42:40.641Z,56.14
2017-07-20T11:45:10.350Z,55.60
2017-07-20T11:47:40.110Z,56.87
2017-07-20T11:50:09.870Z,57.00
2017-07-20T11:52:39.650Z,58.00
2017-07-20T11:55:09.432Z,58.23
2017-07-20T11:57:39.249Z,58.77
2017-07-20T12:00:08.962Z,58.17
2017-07-20T12:02:38.675Z,58.31
2017-07-20T12:05:08.454Z,58.03
2017-07-20T12:07:38.209Z,58.55
2017-07-20T12:10:07.918Z,57.80
2017-07-20T12:12:37.666Z,57.05
2017-07-20T12:15:07.462Z,56.58
2017-07-20T12:17:37.294Z,56.21
2017-07-20T12:20:07.102Z,56.45
2017-07-20T12:22:36.798Z,56.42
2017-07-20T12:25:06.509Z,56.17
2017-07-20T12:27:36.222Z,54.78
2017-07-20T12:30:05.974Z,54.85
2017-07-20T12:32:35.741Z,56.00
2017-07-20T12:35:05.466Z,55.10
2017-07-20T12:37:35.195Z,56.03
2017-07-20T12:40:04.633Z,54.76
2017-07-20T12:42:34.482Z,54.95
2017-07-20T12:45:04.247Z,55.61
2017-07-20T12:47:34.036Z,55.97
2017-07-20T12:50:03.755Z,55.86
2017-07-20T12:52:38.860Z,56.17
2017-07-20T12:55:12.154Z,56.60
2017-07-20T12:57:41.870Z,55.86
2017-07-20T13:00:11.585Z,56.02
2017-07-20T13:02:41.445Z,55.70
2017-07-20T13:05:11.215Z,56.58
2017-07-20T13:07:41.609Z,58.25
2017-07-20T13:10:11.384Z,57.49
2017-07-20T13:12:41.101Z,57.95
2017-07-20T13:15:10.846Z,58.33
2017-07-20T13:17:40.629Z,59.27
2017-07-20T13:20:10.378Z,58.57
2017-07-20T13:22:40.163Z,58.70
2017-07-20T13:25:09.973Z,59.09
2017-07-20T13:27:39.702Z,58.87
2017-07-20T13:30:09.402Z,58.80
2017-07-20T13:32:39.164Z,58.80
2017-07-20T13:35:11.890Z,58.99
2017-07-20T13:37:41.664Z,58.70
2017-07-20T13:40:11.434Z,59.11
2017-07-20T13:42:41.150Z,59.56
2017-07-20T13:45:10.862Z,63.89
2017-07-20T13:47:40.538Z,67.94
2017-07-20T13:50:10.344Z,74.31
2017-07-20T13:52:40.094Z,77.52
2017-07-20T13:55:09.811Z,78.65
2017-07-20T13:57:39.657Z,78.59
2017-07-20T14:00:09.430Z,79.51
2017-07-20T14:02:39.198Z,79.22
2017-07-20T14:05:09.529Z,76.16
2017-07-20T14:07:39.289Z,76.78
2017-07-20T14:10:09.025Z,75.62
2017-07-20T14:12:38.729Z,74.50
2017-07-20T14:15:08.477Z,74.42
2017-07-20T14:17:38.258Z,72.83
2017-07-20T14:20:08.134Z,73.21
2017-07-20T14:22:37.830Z,71.72
2017-07-20T14:25:07.610Z,71.37
2017-07-20T14:27:37.374Z,71.55
2017-07-20T14:30:07.848Z,70.23
2017-07-20T14:32:37.684Z,69.65
2017-07-20T14:35:07.454Z,71.28
2017-07-20T14:37:40.165Z,70.45
2017-07-20T14:40:09.834Z,70.68
2017-07-20T14:42:39.617Z,68.52
2017-07-20T14:45:09.438Z,68.95
2017-07-20T14:47:39.202Z,69.56
2017-07-20T14:50:08.988Z,67.41
2017-07-20T14:52:38.861Z,65.17
2017-07-20T14:55:08.606Z,66.66
2017-07-20T14:57:38.407Z,66.84
2017-07-20T15:00:08.200Z,66.95
2017-07-20T15:02:37.960Z,65.99
2017-07-20T15:05:07.726Z,66.29
2017-07-20T15:07:37.481Z,67.08
2017-07-20T15:10:07.265Z,66.69
2017-07-20T15:12:36.973Z,65.81
2017-07-20T15:15:06.815Z,66.28
2017-07-20T15:17:36.609Z,66.59
2017-07-20T15:20:06.349Z,64.16
2017-07-20T15:22:36.118Z,63.62
2017-07-20T15:25:05.846Z,63.96
2017-07-20T15:27:35.555Z,64.06
2017-07-20T15:30:05.277Z,64.39
2017-07-20T15:32:35.630Z,65.34
2017-07-20T15:35:05.423Z,68.18
2017-07-20T15:37:35.150Z,70.47
2017-07-20T15:40:05.998Z,70.84
2017-07-20T15:42:38.275Z,72.89
2017-07-20T15:45:08.727Z,75.27
2017-07-20T15:47:38.465Z,74.46
2017-07-20T15:50:08.255Z,75.20
2017-07-20T15:52:38.019Z,75.08
2017-07-20T15:55:07.711Z,76.66
2017-07-20T15:57:37.477Z,77.32
2017-07-20T16:00:07.779Z,77.55
2017-07-20T16:02:37.533Z,76.79
2017-07-20T16:05:08.014Z,76.58
2017-07-20T16:07:37.749Z,77.47
2017-07-20T16:10:07.368Z,77.54
2017-07-20T16:12:37.075Z,76.76
2017-07-20T16:15:06.881Z,78.23
2017-07-20T16:17:36.594Z,76.74
2017-07-20T16:20:06.312Z,76.89
2017-07-20T16:22:36.004Z,77.10
2017-07-20T16:25:05.746Z,77.06
2017-07-20T16:27:35.583Z,76.85
2017-07-20T16:30:05.371Z,77.25
2017-07-20T16:32:35.188Z,76.57
2017-07-20T16:35:04.882Z,76.33
2017-07-20T16:37:34.614Z,75.88
2017-07-20T16:40:04.375Z,76.70
2017-07-20T16:42:40.996Z,77.07
2017-07-20T16:45:10.750Z,75.83
2017-07-20T16:47:40.502Z,76.21
2017-07-20T16:50:10.238Z,75.67
2017-07-20T16:52:40.098Z,77.83
2017-07-20T16:55:09.876Z,77.21
2017-07-20T16:57:39.629Z,77.02
2017-07-20T17:00:09.405Z,77.43
2017-07-20T17:02:39.104Z,77.02
2017-07-20T17:05:08.822Z,77.04
2017-07-20T17:07:38.547Z,76.67
2017-07-20T17:10:08.374Z,76.43
2017-07-20T17:12:38.159Z,76.80
2017-07-20T17:15:07.914Z,77.43
2017-07-20T17:17:37.710Z,77.32
2017-07-20T17:20:07.528Z,76.58
2017-07-20T17:22:37.371Z,76.50
2017-07-20T17:25:07.150Z,75.53
2017-07-20T17:27:36.905Z,76.13
2017-07-20T17:30:06.707Z,75.95
2017-07-20T17:32:36.521Z,75.91
2017-07-20T17:35:06.348Z,75.52
2017-07-20T17:37:36.130Z,75.71
2017-07-20T17:40:05.840Z,75.46
2017-07-20T17:42:35.581Z,75.16
2017-07-20T17:45:05.386Z,75.04
2017-07-20T17:47:35.218Z,75.00
2017-07-20T17:50:05.014Z,74.79
2017-07-20T17:52:34.834Z,74.95
2017-07-20T17:55:04.676Z,75.20
2017-07-20T17:57:34.487Z,75.51
2017-07-20T18:00:03.759Z,75.82
2017-07-20T18:02:33.562Z,75.88
2017-07-20T18:05:03.314Z,77.06
2017-07-20T18:07:33.818Z,78.03
2017-07-20T18:10:03.544Z,78.51
2017-07-20T18:12:35.583Z,78.97
2017-07-20T18:15:07.218Z,78.71
2017-07-20T18:17:37.642Z,79.60
2017-07-20T18:20:08.760Z,79.66
2017-07-20T18:22:38.701Z,79.45
2017-07-20T18:25:08.290Z,79.29
2017-07-20T18:27:37.874Z,79.23
2017-07-20T18:30:07.687Z,78.81
2017-07-20T18:32:37.429Z,79.58
2017-07-20T18:35:07.294Z,78.97
2017-07-20T18:37:37.037Z,79.39
2017-07-20T18:40:06.774Z,80.37
2017-07-20T18:42:37.995Z,80.19
2017-07-20T18:45:07.923Z,79.71
2017-07-20T18:47:37.842Z,79.46
2017-07-20T18:50:07.750Z,79.94
2017-07-20T18:52:37.467Z,79.74
2017-07-20T18:55:07.201Z,79.71
2017-07-20T18:57:37.006Z,79.82
2017-07-20T19:00:06.887Z,80.09
2017-07-20T19:02:37.682Z,79.93
2017-07-20T19:05:07.567Z,79.82
2017-07-20T19:07:37.284Z,79.78
2017-07-20T19:10:07.499Z,79.78
2017-07-20T19:12:37.243Z,80.54
2017-07-20T19:15:07.061Z,81.08
2017-07-20T19:17:36.906Z,80.93
2017-07-20T19:20:07.228Z,81.13
2017-07-20T19:22:37.331Z,81.33
2017-07-20T19:25:08.677Z,81.71
2017-07-20T19:27:39.799Z,81.75
2017-07-20T19:30:10.441Z,81.65
2017-07-20T19:32:43.020Z,81.87
2017-07-20T19:35:13.150Z,81.64
2017-07-20T19:37:43.014Z,81.73
2017-07-20T19:40:12.750Z,81.98
2017-07-20T19:42:42.463Z,82.07
2017-07-20T19:45:12.218Z,82.02
2017-07-20T19:47:42.006Z,82.05
2017-07-20T19:50:11.774Z,82.46
2017-07-20T19:52:41.542Z,82.14
2017-07-20T19:55:11.259Z,82.29
2017-07-20T19:57:40.974Z,82.56
2017-07-20T20:00:10.780Z,82.25
2017-07-20T20:02:40.660Z,82.07
2017-07-20T20:05:10.983Z,82.29
2017-07-20T20:07:40.863Z,82.21
2017-07-20T20:10:10.688Z,82.42
2017-07-20T20:12:40.970Z,82.26
2017-07-20T20:15:10.755Z,82.41
2017-07-20T20:17:40.520Z,82.50
2017-07-20T20:20:10.232Z,82.15
2017-07-20T20:22:39.978Z,82.60
2017-07-20T20:25:09.968Z,82.28
2017-07-20T20:27:39.678Z,82.33
2017-07-20T20:30:09.405Z,83.19
2017-07-20T20:32:42.829Z,82.64
2017-07-20T20:35:13.566Z,82.81
2017-07-20T20:37:43.394Z,82.93
2017-07-20T20:40:13.158Z,82.62
2017-07-20T20:42:42.893Z,82.65
2017-07-20T20:45:12.706Z,82.83
2017-07-20T20:47:42.482Z,82.50
2017-07-20T20:50:12.368Z,82.56
2017-07-20T20:52:43.093Z,82.55
2017-07-20T20:55:13.382Z,82.54
2017-07-20T20:57:44.307Z,82.37
2017-07-20T21:00:14.702Z,82.50
2017-07-20T21:02:45.176Z,82.06
2017-07-20T21:05:16.124Z,82.66
2017-07-20T21:07:47.500Z,82.64
2017-07-20T21:10:17.239Z,82.50
2017-07-20T21:12:47.009Z,82.48
2017-07-20T21:15:16.703Z,82.50
2017-07-20T21:17:46.466Z,82.94
2017-07-20T21:20:17.654Z,83.03
2017-07-20T21:22:48.414Z,82.84
2017-07-20T21:25:18.142Z,82.91
2017-07-20T21:27:48.364Z,82.75
2017-07-20T21:30:18.387Z,82.32
2017-07-20T21:32:48.126Z,82.05
2017-07-20T21:35:17.907Z,82.55
2017-07-20T21:37:47.626Z,83.40
2017-07-20T21:40:17.339Z,83.24
2017-07-20T21:42:47.064Z,83.38
2017-07-20T21:45:16.829Z,82.59
2017-07-20T21:47:46.562Z,82.81
2017-07-20T21:50:16.301Z,82.25
2017-07-20T21:52:46.004Z,82.11
2017-07-20T21:55:15.703Z,81.91
2017-07-20T21:57:45.431Z,81.52
2017-07-20T22:00:15.170Z,81.29
2017-07-20T22:02:45.299Z,81.05
2017-07-20T22:05:15.702Z,81.12
2017-07-20T22:07:45.402Z,80.85
2017-07-20T22:10:15.169Z,80.69
2017-07-20T22:12:44.941Z,80.42
2017-07-20T22:15:14.667Z,80.29
2017-07-20T22:17:51.818Z,80.45
2017-07-20T22:20:21.579Z,80.14
2017-07-20T22:22:51.410Z,80.26
2017-07-20T22:25:21.192Z,79.53
2017-07-20T22:27:51.007Z,79.63
2017-07-20T22:30:20.745Z,79.70
2017-07-20T22:32:50.543Z,79.56
2017-07-20T22:35:20.297Z,79.63
2017-07-20T22:37:50.074Z,80.04
2017-07-20T22:40:19.880Z,79.72
2017-07-20T22:42:49.611Z,79.51
2017-07-20T22:45:19.395Z,79.74
2017-07-20T22:47:49.153Z,80.06
2017-07-20T22:50:19.670Z,79.99
2017-07-20T22:52:49.498Z,79.65
2017-07-20T22:55:19.294Z,79.89
2017-07-20T22:57:49.359Z,79.80
2017-07-20T23:00:18.469Z,79.80
2017-07-20T23:02:48.330Z,79.78
2017-07-20T23:05:18.076Z,79.59
2017-07-20T23:07:47.867Z,79.66
2017-07-20T23:10:17.669Z,79.71
2017-07-20T23:12:47.952Z,80.26
2017-07-20T23:15:17.742Z,80.00
2017-07-20T23:17:47.559Z,80.33
2017-07-20T23:20:20.599Z,80.37
2017-07-20T23:22:50.309Z,80.77
2017-07-20T23:25:20.071Z,81.71
2017-07-20T23:27:49.968Z,82.57
2017-07-20T23:30:19.737Z,82.79
2017-07-20T23:32:49.497Z,83.05
2017-07-20T23:35:19.392Z,83.13
2017-07-20T23:37:49.332Z,82.84
2017-07-20T23:40:19.978Z,82.64
2017-07-20T23:42:49.698Z,82.22
2017-07-20T23:45:19.504Z,82.12
2017-07-20T23:47:49.238Z,82.40
2017-07-20T23:50:19.650Z,82.27
2017-07-20T23:52:49.385Z,83.24
2017-07-20T23:55:19.174Z,84.00
2017-07-20T23:57:48.703Z,84.51
